Time;durP1;ratioP1;P1;durP2;ratioP2;P2;SDS_P1;SDS_P2;PMS_P1;PMS_P2;Temp;Humidity;BMP_temperature;BMP_pressure;BME280_temperature;BME280_humidity;BME280_pressure;Samples;Min_cycle;Max_cycle;Signal;HPM_P1;HPM_P2
2022/12/20 00:00:25;;;;;;;37.83;18.45;;;;;;;;;;5096390;28;20119;-74
2022/12/20 00:03:10;;;;;;;45.42;19.63;;;;;;;;;;5095454;28;20031;-74
2022/12/20 00:05:56;;;;;;;45.35;19.83;;;;;;;;;;5080212;28;20385;-73
2022/12/20 00:08:41;;;;;;;40.67;19.95;;;;;;;;;;5094213;28;20062;-74
2022/12/20 00:11:28;;;;;;;41.75;17.95;;;;;;;;;;5095295;28;20024;-73
2022/12/20 00:14:13;;;;;;;37.88;17.85;;;;;;;;;;5082167;28;20024;-74
2022/12/20 00:16:59;;;;;;;39.83;18.98;;;;;;;;;;5079360;28;20032;-74
2022/12/20 00:19:44;;;;;;;43.03;19.75;;;;;;;;;;5079517;28;20059;-75
2022/12/20 00:22:30;;;;;;;42.28;19.17;;;;;;;;;;5094598;28;20028;-74
2022/12/20 00:25:15;;;;;;;42.05;18.70;;;;;;;;;;5094820;28;20398;-75
2022/12/20 00:28:03;;;;;;;41.47;18.63;;;;;;;;;;5094268;28;20353;-74
2022/12/20 00:30:52;;;;;;;38.15;18.35;;;;;;;;;;5095414;28;20024;-76
2022/12/20 00:33:38;;;;;;;40.88;18.83;;;;;;;;;;5095162;28;20028;-75
2022/12/20 00:36:26;;;;;;;39.50;19.15;;;;;;;;;;5094622;28;20109;-75
2022/12/20 00:39:11;;;;;;;38.03;18.50;;;;;;;;;;5094435;28;20072;-74
2022/12/20 00:41:57;;;;;;;43.97;19.75;;;;;;;;;;5095158;28;20024;-75
2022/12/20 00:44:42;;;;;;;41.92;18.58;;;;;;;;;;5094847;28;20501;-75
2022/12/20 00:47:28;;;;;;;41.70;18.42;;;;;;;;;;5079050;28;20028;-73
2022/12/20 00:50:13;;;;;;;42.08;19.48;;;;;;;;;;5094279;28;20020;-73
2022/12/20 00:52:59;;;;;;;41.10;18.70;;;;;;;;;;5073163;28;20031;-75
2022/12/20 00:55:45;;;;;;;42.05;19.45;;;;;;;;;;5088578;28;20524;-74
2022/12/20 00:58:32;;;;;;;42.67;19.58;;;;;;;;;;5095066;28;20354;-75
2022/12/20 01:01:19;;;;;;;40.10;19.20;;;;;;;;;;5039788;28;1139346;-73
2022/12/20 01:04:05;;;;;;;39.58;18.65;;;;;;;;;;5096592;28;20071;-74
2022/12/20 01:06:51;;;;;;;41.67;18.25;;;;;;;;;;5095208;28;20331;-74
2022/12/20 01:09:36;;;;;;;40.67;18.75;;;;;;;;;;5080659;28;20028;-74
2022/12/20 01:12:22;;;;;;;39.17;19.35;;;;;;;;;;5094082;28;20016;-73
2022/12/20 01:15:08;;;;;;;40.75;19.52;;;;;;;;;;5095504;28;20020;-75
2022/12/20 01:17:53;;;;;;;43.15;19.67;;;;;;;;;;5095038;28;20430;-75
2022/12/20 01:20:39;;;;;;;41.38;19.23;;;;;;;;;;5093329;28;20024;-74
2022/12/20 01:23:25;;;;;;;41.20;19.17;;;;;;;;;;5080313;28;20016;-74
2022/12/20 01:26:11;;;;;;;40.83;19.02;;;;;;;;;;5080309;28;20087;-75
2022/12/20 01:28:58;;;;;;;39.35;18.23;;;;;;;;;;5095595;28;20021;-74
2022/12/20 01:31:44;;;;;;;42.38;19.17;;;;;;;;;;5080086;28;20055;-74
2022/12/20 01:34:30;;;;;;;43.40;19.92;;;;;;;;;;5076145;28;20035;-75
2022/12/20 01:37:15;;;;;;;44.22;20.17;;;;;;;;;;5093750;28;20016;-75
2022/12/20 01:40:01;;;;;;;40.55;18.45;;;;;;;;;;5080472;28;20111;-74
2022/12/20 01:42:46;;;;;;;42.22;19.63;;;;;;;;;;5093494;28;20024;-74
2022/12/20 01:45:32;;;;;;;40.88;19.15;;;;;;;;;;5094043;28;20051;-74
2022/12/20 01:48:21;;;;;;;39.88;19.02;;;;;;;;;;5096276;28;20095;-74
2022/12/20 01:51:07;;;;;;;41.55;19.52;;;;;;;;;;5108663;28;20073;-75
2022/12/20 01:54:00;;;;;;;45.08;19.58;;;;;;;;;;5093294;28;20099;-73
2022/12/20 01:56:51;;;;;;;40.90;17.83;;;;;;;;;;5090359;28;20020;-74
2022/12/20 01:59:39;;;;;;;42.10;18.38;;;;;;;;;;5096627;28;20097;-74
2022/12/20 02:02:25;;;;;;;41.92;17.70;;;;;;;;;;5093943;28;20044;-74
2022/12/20 02:05:13;;;;;;;37.67;18.42;;;;;;;;;;5093623;28;20019;-74
2022/12/20 02:07:59;;;;;;;39.13;18.65;;;;;;;;;;5093085;28;20056;-75
2022/12/20 02:10:50;;;;;;;39.67;19.02;;;;;;;;;;5073020;28;20024;-76
2022/12/20 02:13:55;;;;;;;39.38;19.30;;;;;;;;;;5094388;28;20102;-75
2022/12/20 02:16:44;;;;;;;39.25;18.40;;;;;;;;;;5104978;28;20016;-74
2022/12/20 02:19:29;;;;;;;39.72;18.63;;;;;;;;;;5097560;28;20020;-74
2022/12/20 02:22:25;;;;;;;39.88;18.70;;;;;;;;;;5087235;28;20077;-74
2022/12/20 02:25:25;;;;;;;40.08;18.75;;;;;;;;;;5113138;28;20028;-74
2022/12/20 02:28:10;;;;;;;38.05;18.73;;;;;;;;;;5080344;28;20114;-75
2022/12/20 02:30:59;;;;;;;41.10;18.90;;;;;;;;;;5093242;28;20027;-74
2022/12/20 02:33:46;;;;;;;50.17;20.92;;;;;;;;;;5092824;28;20069;-75
2022/12/20 02:36:32;;;;;;;41.97;19.38;;;;;;;;;;5093059;28;20035;-74
2022/12/20 02:39:18;;;;;;;38.88;18.52;;;;;;;;;;5079026;28;20016;-72
2022/12/20 02:42:05;;;;;;;41.40;19.27;;;;;;;;;;5092525;28;20085;-74
2022/12/20 02:45:18;;;;;;;45.03;19.73;;;;;;;;;;5093708;28;20050;-74
2022/12/20 02:48:06;;;;;;;44.35;18.83;;;;;;;;;;5092906;28;20046;-74
2022/12/20 02:50:53;;;;;;;42.05;19.38;;;;;;;;;;5080217;28;20020;-74
2022/12/20 02:53:39;;;;;;;42.40;18.75;;;;;;;;;;5092794;28;20020;-72
2022/12/20 02:56:31;;;;;;;42.30;19.67;;;;;;;;;;5078442;28;20027;-74
2022/12/20 02:59:19;;;;;;;45.20;20.35;;;;;;;;;;5093033;28;20024;-74
2022/12/20 03:02:05;;;;;;;44.80;20.52;;;;;;;;;;5077868;28;20425;-74
2022/12/20 03:04:51;;;;;;;43.78;20.67;;;;;;;;;;5078579;28;20016;-74
2022/12/20 03:07:36;;;;;;;48.72;21.13;;;;;;;;;;5079270;28;20450;-74
2022/12/20 03:10:22;;;;;;;43.95;20.60;;;;;;;;;;5092656;28;20028;-74
2022/12/20 03:13:08;;;;;;;46.25;21.20;;;;;;;;;;5078122;28;20107;-74
2022/12/20 03:15:54;;;;;;;46.63;20.63;;;;;;;;;;5078275;28;20089;-74
2022/12/20 03:18:40;;;;;;;43.90;20.27;;;;;;;;;;5092486;28;20403;-74
2022/12/20 03:21:25;;;;;;;47.15;21.67;;;;;;;;;;5093097;28;20111;-74
2022/12/20 03:24:12;;;;;;;45.00;20.55;;;;;;;;;;5092435;28;20016;-73
2022/12/20 03:26:58;;;;;;;43.47;20.48;;;;;;;;;;5093003;28;20024;-74
2022/12/20 03:29:44;;;;;;;42.22;19.92;;;;;;;;;;5092975;28;20074;-74
2022/12/20 03:32:30;;;;;;;46.22;20.13;;;;;;;;;;5093168;28;20034;-73
2022/12/20 03:35:16;;;;;;;46.83;20.45;;;;;;;;;;5092949;28;20032;-75
2022/12/20 03:38:01;;;;;;;44.95;20.73;;;;;;;;;;5078708;28;20378;-75
2022/12/20 03:40:47;;;;;;;47.42;21.27;;;;;;;;;;5093433;28;20043;-75
2022/12/20 03:43:32;;;;;;;44.78;21.33;;;;;;;;;;5093344;28;20453;-73
2022/12/20 03:46:18;;;;;;;44.53;20.63;;;;;;;;;;5096530;28;20089;-74
2022/12/20 03:49:04;;;;;;;45.45;21.25;;;;;;;;;;5096212;28;20124;-73
2022/12/20 03:51:49;;;;;;;48.13;21.23;;;;;;;;;;5096154;28;20125;-73
2022/12/20 03:54:35;;;;;;;42.90;20.70;;;;;;;;;;5096430;28;20033;-73
2022/12/20 03:57:21;;;;;;;48.47;21.42;;;;;;;;;;5081846;28;20420;-73
2022/12/20 04:00:06;;;;;;;46.45;21.90;;;;;;;;;;5096275;28;20024;-74
2022/12/20 04:02:52;;;;;;;47.22;21.48;;;;;;;;;;5076417;28;20044;-74
2022/12/20 04:05:38;;;;;;;48.97;21.95;;;;;;;;;;5061483;28;20023;-73
2022/12/20 04:08:23;;;;;;;47.72;21.10;;;;;;;;;;5062346;28;20020;-75
2022/12/20 04:11:15;;;;;;;48.05;21.63;;;;;;;;;;5060869;28;20028;-74
2022/12/20 04:14:00;;;;;;;53.60;22.70;;;;;;;;;;5061501;28;20020;-73
2022/12/20 04:16:46;;;;;;;46.90;22.20;;;;;;;;;;5076416;28;20035;-73
2022/12/20 04:19:32;;;;;;;53.35;24.33;;;;;;;;;;5076016;28;20107;-74
2022/12/20 04:22:17;;;;;;;56.53;25.10;;;;;;;;;;5060683;28;20397;-73
2022/12/20 04:25:03;;;;;;;54.90;23.98;;;;;;;;;;5076221;28;20054;-74
2022/12/20 04:27:49;;;;;;;50.80;21.90;;;;;;;;;;5075783;28;20020;-74
2022/12/20 04:30:34;;;;;;;54.42;24.67;;;;;;;;;;5076974;28;20032;-73
2022/12/20 04:33:20;;;;;;;53.13;24.08;;;;;;;;;;5075974;28;20032;-73
2022/12/20 04:36:06;;;;;;;54.53;23.33;;;;;;;;;;5076048;28;20032;-75
2022/12/20 04:38:52;;;;;;;44.47;21.17;;;;;;;;;;5075312;28;20031;-75
2022/12/20 04:41:38;;;;;;;46.88;21.63;;;;;;;;;;5060423;28;20024;-73
2022/12/20 04:44:23;;;;;;;49.53;22.05;;;;;;;;;;5075511;28;20017;-74
2022/12/20 04:47:09;;;;;;;49.63;21.75;;;;;;;;;;5075891;28;20021;-74
2022/12/20 04:49:55;;;;;;;48.70;22.27;;;;;;;;;;5075645;28;20036;-75
2022/12/20 04:55:44;;;;;;;47.95;22.33;;;;;;;;;;5074969;28;20021;-74
2022/12/20 04:58:30;;;;;;;47.30;21.75;;;;;;;;;;5066441;28;20416;-74
2022/12/20 05:01:16;;;;;;;48.35;22.08;;;;;;;;;;5070251;28;20058;-75
2022/12/20 05:04:01;;;;;;;44.83;20.45;;;;;;;;;;5081134;28;20350;-74
2022/12/20 05:06:47;;;;;;;49.47;22.25;;;;;;;;;;5094899;28;20089;-73
2022/12/20 05:09:33;;;;;;;52.72;23.35;;;;;;;;;;5079469;28;20389;-73
2022/12/20 05:12:18;;;;;;;58.83;23.77;;;;;;;;;;5094000;28;20056;-74
2022/12/20 05:15:04;;;;;;;54.83;24.10;;;;;;;;;;5094874;28;20103;-75
2022/12/20 05:17:49;;;;;;;62.28;26.10;;;;;;;;;;5094780;28;20012;-74
2022/12/20 05:20:35;;;;;;;65.45;26.42;;;;;;;;;;5080314;28;20146;-73
2022/12/20 05:26:27;;;;;;;53.72;24.17;;;;;;;;;;5094182;28;20061;-74
2022/12/20 05:29:14;;;;;;;56.03;23.75;;;;;;;;;;5094096;28;20031;-76
2022/12/20 05:32:00;;;;;;;58.90;25.08;;;;;;;;;;5079895;28;20023;-76
2022/12/20 05:34:45;;;;;;;56.03;25.60;;;;;;;;;;5094057;28;20430;-76
2022/12/20 05:37:31;;;;;;;58.75;25.13;;;;;;;;;;5094241;28;20027;-75
2022/12/20 05:40:16;;;;;;;60.83;25.35;;;;;;;;;;5094395;28;20481;-76
2022/12/20 05:43:02;;;;;;;57.65;26.02;;;;;;;;;;5094506;28;20020;-74
2022/12/20 05:45:49;;;;;;;56.45;24.50;;;;;;;;;;5094340;28;20035;-74
2022/12/20 05:48:35;;;;;;;54.72;25.55;;;;;;;;;;5094553;28;20184;-75
2022/12/20 05:51:20;;;;;;;65.13;26.48;;;;;;;;;;5093772;28;20365;-76
2022/12/20 05:54:06;;;;;;;60.80;25.40;;;;;;;;;;5092993;28;20350;-75
2022/12/20 05:56:51;;;;;;;58.65;24.67;;;;;;;;;;5079073;28;20089;-76
2022/12/20 05:59:37;;;;;;;63.10;25.75;;;;;;;;;;5093096;28;20134;-76
2022/12/20 06:02:23;;;;;;;59.05;25.08;;;;;;;;;;5079267;28;20488;-76
2022/12/20 06:05:08;;;;;;;70.93;29.45;;;;;;;;;;5080067;28;20062;-76
2022/12/20 06:07:54;;;;;;;75.18;29.00;;;;;;;;;;5093219;28;20024;-75
2022/12/20 06:10:43;;;;;;;66.40;27.65;;;;;;;;;;5099174;28;20008;-76
2022/12/20 06:13:28;;;;;;;64.95;28.33;;;;;;;;;;5097929;28;20024;-75
2022/12/20 06:16:14;;;;;;;61.55;25.63;;;;;;;;;;5104412;28;20020;-76
2022/12/20 06:19:00;;;;;;;58.95;25.05;;;;;;;;;;5080228;28;20065;-75
2022/12/20 06:21:45;;;;;;;60.35;25.42;;;;;;;;;;5078995;28;20076;-74
2022/12/20 06:24:32;;;;;;;64.72;26.80;;;;;;;;;;5093065;28;20020;-75
2022/12/20 06:27:20;;;;;;;62.92;26.58;;;;;;;;;;5093954;28;20024;-76
2022/12/20 06:30:06;;;;;;;65.65;29.52;;;;;;;;;;5079608;28;20055;-77
2022/12/20 06:32:52;;;;;;;74.25;28.08;;;;;;;;;;5097012;28;20020;-76
2022/12/20 06:35:38;;;;;;;64.30;27.45;;;;;;;;;;5100811;28;20425;-73
2022/12/20 06:38:24;;;;;;;57.40;26.67;;;;;;;;;;5095234;28;20055;-77
2022/12/20 06:41:09;;;;;;;61.25;26.63;;;;;;;;;;5112036;28;20033;-76
2022/12/20 06:43:55;;;;;;;70.57;29.92;;;;;;;;;;5081344;28;20054;-75
2022/12/20 06:46:40;;;;;;;70.57;29.80;;;;;;;;;;5093259;28;20027;-76
2022/12/20 06:49:26;;;;;;;68.22;28.83;;;;;;;;;;5079496;28;20397;-75
2022/12/20 06:52:11;;;;;;;63.78;29.10;;;;;;;;;;5093229;28;20115;-76
2022/12/20 06:54:57;;;;;;;70.88;28.73;;;;;;;;;;5079599;28;20035;-75
2022/12/20 06:57:43;;;;;;;69.05;29.75;;;;;;;;;;5092911;28;20020;-77
2022/12/20 07:00:28;;;;;;;69.57;30.23;;;;;;;;;;5093437;28;20021;-75
2022/12/20 07:03:14;;;;;;;75.47;29.25;;;;;;;;;;5093264;28;20020;-75
2022/12/20 07:06:00;;;;;;;75.53;29.40;;;;;;;;;;5092390;28;20020;-76
2022/12/20 07:08:45;;;;;;;60.55;28.60;;;;;;;;;;5078532;28;20070;-76
2022/12/20 07:11:31;;;;;;;70.85;31.15;;;;;;;;;;5079352;28;20027;-76
2022/12/20 07:14:16;;;;;;;68.28;30.88;;;;;;;;;;5092089;28;20028;-75
2022/12/20 07:17:02;;;;;;;73.72;30.90;;;;;;;;;;5091742;28;20028;-76
2022/12/20 07:19:48;;;;;;;71.03;31.63;;;;;;;;;;5096274;28;20023;-75
2022/12/20 07:22:33;;;;;;;69.55;30.77;;;;;;;;;;5083000;28;20118;-76
2022/12/20 07:25:19;;;;;;;77.88;31.73;;;;;;;;;;5097390;28;20338;-76
2022/12/20 07:28:05;;;;;;;62.15;29.25;;;;;;;;;;5096244;28;20458;-76
2022/12/20 07:30:50;;;;;;;65.47;28.88;;;;;;;;;;5097575;28;20032;-77
2022/12/20 07:33:37;;;;;;;66.40;28.73;;;;;;;;;;5101058;28;20020;-75
2022/12/20 07:36:23;;;;;;;64.35;28.35;;;;;;;;;;5082779;28;20099;-76
2022/12/20 07:39:09;;;;;;;65.57;29.02;;;;;;;;;;5096658;28;20077;-77
2022/12/20 07:41:54;;;;;;;64.72;26.95;;;;;;;;;;5096592;28;20353;-74
2022/12/20 07:44:40;;;;;;;63.10;28.17;;;;;;;;;;5097176;28;20024;-77
2022/12/20 07:47:26;;;;;;;62.80;27.15;;;;;;;;;;5082501;28;20180;-77
2022/12/20 07:50:11;;;;;;;63.28;28.45;;;;;;;;;;5095344;28;20353;-78
2022/12/20 07:52:57;;;;;;;62.88;28.38;;;;;;;;;;5095848;28;20460;-75
2022/12/20 07:55:43;;;;;;;72.78;30.45;;;;;;;;;;5096206;28;20077;-77
2022/12/20 07:58:29;;;;;;;67.82;29.73;;;;;;;;;;5095838;28;20012;-76
2022/12/20 08:01:15;;;;;;;65.53;30.48;;;;;;;;;;5095720;28;20145;-77
2022/12/20 08:04:04;;;;;;;68.43;30.05;;;;;;;;;;5095395;28;20016;-77
2022/12/20 08:06:51;;;;;;;68.10;29.40;;;;;;;;;;5095327;28;20426;-77
2022/12/20 08:09:40;;;;;;;79.25;31.80;;;;;;;;;;5095368;28;20443;-76
2022/12/20 08:12:28;;;;;;;70.85;31.52;;;;;;;;;;5081565;28;20069;-76
2022/12/20 08:15:14;;;;;;;63.88;29.48;;;;;;;;;;5094762;28;20035;-76
2022/12/20 08:17:59;;;;;;;66.95;29.92;;;;;;;;;;5095217;28;20027;-76
2022/12/20 08:20:45;;;;;;;66.35;30.00;;;;;;;;;;5081491;28;20020;-76
2022/12/20 08:23:31;;;;;;;62.33;29.13;;;;;;;;;;5080928;28;20334;-76
2022/12/20 08:26:17;;;;;;;70.55;30.42;;;;;;;;;;5081216;28;20415;-77
2022/12/20 08:29:02;;;;;;;73.35;30.83;;;;;;;;;;5080823;28;20081;-76
2022/12/20 08:31:48;;;;;;;70.25;32.20;;;;;;;;;;5080664;28;20070;-77
2022/12/20 08:34:33;;;;;;;67.40;30.60;;;;;;;;;;5094048;28;20428;-77
2022/12/20 08:37:19;;;;;;;68.68;31.33;;;;;;;;;;5095065;28;20459;-76
2022/12/20 08:40:06;;;;;;;72.35;31.40;;;;;;;;;;5094423;28;20318;-76
2022/12/20 08:42:52;;;;;;;68.88;32.10;;;;;;;;;;5096445;28;20399;-77
2022/12/20 08:45:37;;;;;;;84.18;31.88;;;;;;;;;;5080669;28;20016;-76
2022/12/20 08:48:23;;;;;;;73.10;32.42;;;;;;;;;;5081967;28;20027;-76
2022/12/20 08:51:09;;;;;;;71.00;31.10;;;;;;;;;;5080939;28;20023;-75
2022/12/20 08:53:55;;;;;;;66.45;30.70;;;;;;;;;;5080456;28;20350;-75
2022/12/20 08:56:41;;;;;;;76.72;32.83;;;;;;;;;;5094918;28;20051;-75
2022/12/20 08:59:26;;;;;;;74.38;33.13;;;;;;;;;;5094234;28;20028;-75
2022/12/20 09:02:12;;;;;;;83.82;32.78;;;;;;;;;;5079911;28;20044;-74
2022/12/20 09:04:57;;;;;;;72.03;31.70;;;;;;;;;;5094520;28;20024;-75
2022/12/20 09:07:43;;;;;;;74.55;33.13;;;;;;;;;;5094304;28;20366;-75
2022/12/20 09:10:29;;;;;;;70.68;33.05;;;;;;;;;;5094653;28;20096;-75
2022/12/20 09:13:14;;;;;;;71.03;31.98;;;;;;;;;;5093666;28;20027;-75
2022/12/20 09:16:01;;;;;;;68.20;32.30;;;;;;;;;;5079378;28;20052;-75
2022/12/20 09:18:48;;;;;;;65.85;30.23;;;;;;;;;;5079719;28;20400;-74
2022/12/20 09:21:34;;;;;;;71.90;31.50;;;;;;;;;;5079464;28;20434;-75
2022/12/20 09:24:19;;;;;;;81.65;31.80;;;;;;;;;;5079422;28;20020;-75
2022/12/20 09:27:05;;;;;;;82.07;33.88;;;;;;;;;;5093875;28;20043;-77
2022/12/20 09:29:50;;;;;;;79.65;34.42;;;;;;;;;;5094320;28;20315;-76
2022/12/20 09:32:36;;;;;;;83.05;37.33;;;;;;;;;;5093604;28;20031;-74
2022/12/20 09:35:21;;;;;;;77.72;35.47;;;;;;;;;;5094439;28;20024;-79
2022/12/20 09:38:07;;;;;;;80.35;33.47;;;;;;;;;;5093956;28;20020;-78
2022/12/20 09:40:54;;;;;;;73.05;32.80;;;;;;;;;;5094155;28;20020;-78
2022/12/20 09:43:40;;;;;;;75.00;33.50;;;;;;;;;;5094648;28;20059;-77
2022/12/20 09:46:26;;;;;;;73.47;33.47;;;;;;;;;;5095214;28;20024;-76
2022/12/20 09:49:16;;;;;;;70.30;32.20;;;;;;;;;;5094017;28;20400;-79
2022/12/20 09:52:11;;;;;;;73.55;30.30;;;;;;;;;;5094134;28;20085;-76
2022/12/20 09:54:56;;;;;;;77.13;30.88;;;;;;;;;;5094378;28;20111;-77
2022/12/20 09:57:51;;;;;;;72.63;31.20;;;;;;;;;;5093518;28;20037;-78
2022/12/20 10:00:42;;;;;;;66.70;28.85;;;;;;;;;;5093204;28;20048;-76
2022/12/20 10:03:28;;;;;;;72.45;30.23;;;;;;;;;;5080180;28;20016;-76
2022/12/20 10:06:32;;;;;;;68.38;31.33;;;;;;;;;;5094111;28;20500;-76
2022/12/20 10:09:26;;;;;;;66.63;28.95;;;;;;;;;;5094416;28;20031;-75
2022/12/20 10:12:31;;;;;;;66.93;30.05;;;;;;;;;;5093338;28;20122;-76
2022/12/20 10:15:19;;;;;;;73.97;29.67;;;;;;;;;;5081183;28;20020;-77
2022/12/20 10:18:14;;;;;;;67.43;30.00;;;;;;;;;;5094401;28;20559;-75
2022/12/20 10:21:09;;;;;;;65.40;28.55;;;;;;;;;;5081125;28;20027;-77
2022/12/20 10:23:54;;;;;;;67.25;30.42;;;;;;;;;;5079224;28;20016;-77
2022/12/20 10:26:40;;;;;;;69.18;30.60;;;;;;;;;;5094090;28;20019;-77
2022/12/20 10:29:26;;;;;;;66.38;30.15;;;;;;;;;;5094220;28;20028;-77
2022/12/20 10:32:12;;;;;;;59.00;27.33;;;;;;;;;;5078594;28;20031;-77
2022/12/20 10:35:10;;;;;;;60.53;27.65;;;;;;;;;;5082605;28;20112;-79
2022/12/20 10:38:12;;;;;;;56.38;26.35;;;;;;;;;;5093934;28;20036;-78
2022/12/20 10:41:02;;;;;;;56.28;25.92;;;;;;;;;;5080420;28;20461;-79
2022/12/20 10:43:52;;;;;;;56.42;27.15;;;;;;;;;;5093030;28;20039;-77
2022/12/20 10:46:42;;;;;;;58.47;27.02;;;;;;;;;;5093712;28;20023;-79
2022/12/20 10:49:28;;;;;;;54.55;26.38;;;;;;;;;;5098525;28;20028;-77
2022/12/20 10:52:14;;;;;;;60.55;28.20;;;;;;;;;;5093579;28;20020;-78
2022/12/20 10:54:59;;;;;;;60.90;27.30;;;;;;;;;;5084059;28;20024;-78
2022/12/20 10:57:45;;;;;;;59.97;28.20;;;;;;;;;;5098572;28;20086;-79
2022/12/20 11:00:31;;;;;;;59.67;28.00;;;;;;;;;;5082383;28;20016;-77
2022/12/20 11:03:21;;;;;;;69.40;34.13;;;;;;;;;;5097707;28;20364;-77
2022/12/20 11:06:14;;;;;;;67.40;31.88;;;;;;;;;;5098334;28;20028;-78
2022/12/20 11:09:32;;;;;;;58.50;27.08;;;;;;;;;;5097255;28;20012;-79
2022/12/20 11:12:17;;;;;;;60.63;27.98;;;;;;;;;;5034981;28;20020;-78
2022/12/20 11:15:18;;;;;;;59.25;27.98;;;;;;;;;;5097636;28;20438;-79
2022/12/20 11:18:06;;;;;;;58.08;26.83;;;;;;;;;;5098633;28;20016;-78
2022/12/20 11:20:57;;;;;;;64.40;27.63;;;;;;;;;;5096734;28;20434;-79
2022/12/20 11:23:47;;;;;;;65.60;28.58;;;;;;;;;;5097079;28;20024;-79
2022/12/20 11:26:32;;;;;;;60.72;27.73;;;;;;;;;;5096880;28;20024;-79
2022/12/20 11:29:28;;;;;;;64.93;27.90;;;;;;;;;;5082368;28;20016;-79
2022/12/20 11:32:36;;;;;;;63.50;27.88;;;;;;;;;;5097311;28;20028;-78
2022/12/20 11:35:34;;;;;;;60.38;27.02;;;;;;;;;;5098099;28;20451;-76
2022/12/20 11:38:31;;;;;;;52.78;25.45;;;;;;;;;;5098323;28;20016;-76
2022/12/20 11:41:34;;;;;;;61.28;26.67;;;;;;;;;;5111913;28;20087;-75
2022/12/20 11:44:38;;;;;;;62.75;28.23;;;;;;;;;;5096898;28;20016;-74
2022/12/20 11:47:31;;;;;;;60.42;27.40;;;;;;;;;;5097233;28;20019;-74
2022/12/20 11:50:35;;;;;;;62.25;29.27;;;;;;;;;;5118701;28;20073;-75
2022/12/20 11:53:39;;;;;;;63.05;28.17;;;;;;;;;;5107596;28;20012;-75
2022/12/20 11:56:39;;;;;;;72.25;30.90;;;;;;;;;;5104319;28;20016;-74
2022/12/20 11:59:36;;;;;;;62.70;29.60;;;;;;;;;;5109493;28;20016;-75
2022/12/20 12:02:37;;;;;;;64.38;30.70;;;;;;;;;;5082890;28;20045;-75
2022/12/20 12:05:26;;;;;;;71.65;32.30;;;;;;;;;;5081409;28;20020;-76
2022/12/20 12:08:15;;;;;;;73.15;32.05;;;;;;;;;;5082211;28;20012;-75
2022/12/20 12:11:13;;;;;;;71.50;30.63;;;;;;;;;;5094889;28;20096;-76
2022/12/20 12:14:00;;;;;;;65.95;30.35;;;;;;;;;;5095382;28;20046;-74
2022/12/20 12:16:48;;;;;;;76.97;32.00;;;;;;;;;;5095337;28;20096;-75
2022/12/20 12:19:36;;;;;;;68.75;29.88;;;;;;;;;;5083188;28;20446;-75
2022/12/20 12:22:27;;;;;;;71.10;30.10;;;;;;;;;;5096310;28;20081;-75
2022/12/20 12:25:15;;;;;;;66.97;31.30;;;;;;;;;;5101701;28;20008;-74
2022/12/20 12:28:01;;;;;;;69.80;32.17;;;;;;;;;;5115299;28;20020;-74
2022/12/20 12:30:56;;;;;;;75.03;31.88;;;;;;;;;;5096366;28;20027;-76
2022/12/20 12:33:46;;;;;;;74.22;32.33;;;;;;;;;;5096009;28;20127;-76
2022/12/20 12:36:31;;;;;;;68.90;31.23;;;;;;;;;;5080418;28;20453;-76
2022/12/20 12:39:29;;;;;;;72.45;33.90;;;;;;;;;;5095456;28;20024;-74
2022/12/20 12:42:41;;;;;;;76.38;34.45;;;;;;;;;;5093663;28;20020;-76
2022/12/20 12:45:34;;;;;;;81.10;35.72;;;;;;;;;;5070585;28;20036;-76
2022/12/20 12:48:34;;;;;;;78.18;35.20;;;;;;;;;;5083097;28;20039;-74
2022/12/20 12:51:26;;;;;;;89.68;38.35;;;;;;;;;;5101930;28;20347;-75
2022/12/20 12:54:15;;;;;;;83.78;37.47;;;;;;;;;;5094970;28;20028;-76
2022/12/20 12:57:11;;;;;;;81.35;36.72;;;;;;;;;;5094622;28;20024;-78
2022/12/20 12:59:57;;;;;;;80.60;35.20;;;;;;;;;;5096061;28;20024;-77
2022/12/20 13:02:49;;;;;;;92.15;39.33;;;;;;;;;;5086183;28;20108;-76
2022/12/20 13:05:35;;;;;;;90.70;40.55;;;;;;;;;;5065192;28;20031;-76
2022/12/20 13:08:40;;;;;;;83.13;37.33;;;;;;;;;;5061997;28;20013;-75
2022/12/20 13:11:29;;;;;;;81.78;35.65;;;;;;;;;;5084815;28;20033;-76
2022/12/20 13:14:24;;;;;;;72.35;33.78;;;;;;;;;;5075646;28;20442;-78
2022/12/20 13:17:19;;;;;;;87.40;37.72;;;;;;;;;;5076198;28;20059;-78
2022/12/20 13:20:14;;;;;;;82.88;36.67;;;;;;;;;;5062918;28;20097;-77
2022/12/20 13:23:12;;;;;;;87.53;37.88;;;;;;;;;;5070567;28;20033;-77
2022/12/20 13:25:57;;;;;;;88.35;37.83;;;;;;;;;;5076344;28;20017;-76
2022/12/20 13:28:44;;;;;;;86.90;36.58;;;;;;;;;;5059927;28;20439;-77
2022/12/20 13:31:30;;;;;;;92.47;40.05;;;;;;;;;;5059954;28;20408;-77
2022/12/20 13:34:35;;;;;;;82.63;36.20;;;;;;;;;;5074361;28;20117;-76
2022/12/20 13:37:28;;;;;;;78.10;36.38;;;;;;;;;;5074356;28;20497;-76
2022/12/20 13:40:41;;;;;;;78.60;35.72;;;;;;;;;;5060622;28;20131;-76
2022/12/20 13:43:33;;;;;;;79.78;36.20;;;;;;;;;;5059214;28;20028;-76
2022/12/20 13:46:25;;;;;;;92.70;36.85;;;;;;;;;;5060183;28;20021;-77
2022/12/20 13:49:14;;;;;;;84.28;37.28;;;;;;;;;;5062050;28;20023;-77
2022/12/20 13:52:12;;;;;;;76.53;34.22;;;;;;;;;;5061892;28;20066;-74
2022/12/20 13:55:01;;;;;;;78.70;32.63;;;;;;;;;;5060179;28;20021;-76
2022/12/20 13:57:46;;;;;;;73.18;34.15;;;;;;;;;;5074068;28;20024;-79
2022/12/20 14:00:33;;;;;;;84.35;36.03;;;;;;;;;;5077315;28;20040;-77
2022/12/20 14:03:23;;;;;;;76.13;33.17;;;;;;;;;;5094383;28;20024;-79
2022/12/20 14:06:09;;;;;;;80.88;34.38;;;;;;;;;;5094186;28;20054;-76
2022/12/20 14:08:55;;;;;;;79.65;34.72;;;;;;;;;;5094176;28;20024;-76
2022/12/20 14:11:47;;;;;;;79.63;35.58;;;;;;;;;;5094318;28;20359;-76
2022/12/20 14:14:37;;;;;;;71.15;32.65;;;;;;;;;;5093912;28;20031;-76
2022/12/20 14:17:30;;;;;;;78.43;34.15;;;;;;;;;;5093862;28;20357;-78
2022/12/20 14:20:17;;;;;;;76.95;35.25;;;;;;;;;;5094249;28;20098;-76
2022/12/20 14:23:04;;;;;;;73.32;34.17;;;;;;;;;;5093891;28;20028;-75
2022/12/20 14:25:56;;;;;;;79.53;36.00;;;;;;;;;;5079142;28;20020;-77
2022/12/20 14:28:44;;;;;;;83.15;36.33;;;;;;;;;;5079675;28;20103;-76
2022/12/20 14:31:36;;;;;;;75.90;35.10;;;;;;;;;;5093070;28;20099;-77
2022/12/20 14:34:25;;;;;;;89.10;34.72;;;;;;;;;;5080150;28;20038;-76
2022/12/20 14:37:22;;;;;;;78.90;33.95;;;;;;;;;;5093951;28;20107;-76
2022/12/20 14:40:08;;;;;;;81.00;35.72;;;;;;;;;;5078442;28;20023;-77
2022/12/20 14:42:53;;;;;;;80.95;34.67;;;;;;;;;;5078574;28;20043;-76
2022/12/20 14:45:39;;;;;;;74.57;34.33;;;;;;;;;;5094044;28;20055;-76
2022/12/20 14:48:24;;;;;;;77.88;33.50;;;;;;;;;;5078643;28;20017;-76
2022/12/20 14:51:11;;;;;;;75.80;35.40;;;;;;;;;;5092878;28;20020;-77
2022/12/20 14:53:57;;;;;;;71.00;33.17;;;;;;;;;;5097882;28;20346;-76
2022/12/20 14:56:44;;;;;;;74.90;32.53;;;;;;;;;;5093129;28;20035;-76
2022/12/20 14:59:30;;;;;;;71.85;31.88;;;;;;;;;;5093396;28;20073;-76
2022/12/20 15:02:38;;;;;;;73.53;32.97;;;;;;;;;;5073502;28;20084;-75
2022/12/20 15:05:36;;;;;;;86.90;35.38;;;;;;;;;;5092691;28;20016;-76
2022/12/20 15:08:31;;;;;;;71.82;32.22;;;;;;;;;;5093224;28;20406;-75
2022/12/20 15:11:20;;;;;;;69.35;31.08;;;;;;;;;;5093630;28;20438;-76
2022/12/20 15:14:18;;;;;;;66.78;32.88;;;;;;;;;;5092100;28;20103;-78
2022/12/20 15:17:11;;;;;;;73.03;32.08;;;;;;;;;;5092591;28;20017;-76
2022/12/20 15:19:58;;;;;;;66.20;31.80;;;;;;;;;;5093788;28;20071;-77
2022/12/20 15:22:43;;;;;;;90.78;37.90;;;;;;;;;;5092201;28;20067;-77
2022/12/20 15:25:32;;;;;;;84.85;39.42;;;;;;;;;;5092313;28;20022;-75
2022/12/20 15:28:19;;;;;;;110.22;51.13;;;;;;;;;;5093209;28;20040;-76
2022/12/20 15:31:04;;;;;;;76.43;34.22;;;;;;;;;;5092719;28;20102;-77
2022/12/20 15:33:50;;;;;;;65.85;31.25;;;;;;;;;;5092000;28;20335;-75
2022/12/20 15:36:37;;;;;;;61.67;29.25;;;;;;;;;;5093070;28;20093;-76
2022/12/20 15:39:23;;;;;;;62.97;27.98;;;;;;;;;;5079196;28;20020;-77
2022/12/20 15:42:12;;;;;;;61.17;28.63;;;;;;;;;;5081983;28;20028;-77
2022/12/20 15:45:00;;;;;;;59.55;27.08;;;;;;;;;;5097098;28;20012;-74
2022/12/20 15:47:46;;;;;;;60.72;28.27;;;;;;;;;;5097581;28;20092;-74
2022/12/20 15:50:31;;;;;;;61.45;28.63;;;;;;;;;;5081777;28;20016;-77
2022/12/20 15:53:21;;;;;;;65.72;30.70;;;;;;;;;;5095318;28;20062;-76
2022/12/20 15:56:11;;;;;;;74.65;32.70;;;;;;;;;;5096732;28;20077;-77
2022/12/20 15:58:56;;;;;;;72.53;32.72;;;;;;;;;;5081743;28;20446;-74
2022/12/20 16:01:42;;;;;;;72.88;33.22;;;;;;;;;;5094601;28;20040;-79
2022/12/20 16:04:28;;;;;;;68.53;31.58;;;;;;;;;;5096523;28;20012;-76
2022/12/20 16:07:13;;;;;;;70.72;32.80;;;;;;;;;;5097961;28;20346;-74
2022/12/20 16:09:59;;;;;;;69.60;31.33;;;;;;;;;;5096887;28;20024;-75
2022/12/20 16:12:45;;;;;;;69.22;30.48;;;;;;;;;;5082566;28;20023;-77
2022/12/20 16:15:30;;;;;;;60.65;29.05;;;;;;;;;;5098233;28;20056;-75
2022/12/20 16:18:16;;;;;;;73.20;33.15;;;;;;;;;;5096198;28;20024;-76
2022/12/20 16:21:02;;;;;;;68.40;31.98;;;;;;;;;;5096890;28;20016;-77
2022/12/20 16:23:49;;;;;;;67.65;32.67;;;;;;;;;;5097889;28;20434;-77